Time;durP1;ratioP1;P1;durP2;ratioP2;P2;SDS_P1;SDS_P2;PMS_P1;PMS_P2;Temp;Humidity;BMP_temperature;BMP_pressure;BME280_temperature;BME280_humidity;BME280_pressure;Samples;Min_cycle;Max_cycle;Signal;HPM_P1;HPM_P2
2022/08/31 00:05:56;;;;;;;7.75;5.35;;;17.70;93.00;;;;;;5056889;28;20196;-69
2022/08/31 00:08:26;;;;;;;8.57;5.45;;;17.70;93.10;;;;;;5066229;28;20203;-67
2022/08/31 00:10:54;;;;;;;7.10;5.35;;;17.70;93.20;;;;;;5072078;28;20609;-69
2022/08/31 00:13:26;;;;;;;9.10;6.43;;;17.70;93.30;;;;;;5072116;28;20198;-69
2022/08/31 00:15:57;;;;;;;8.93;5.95;;;17.60;93.30;;;;;;5072137;28;20198;-71
2022/08/31 00:18:27;;;;;;;7.57;6.32;;;17.60;93.50;;;;;;5068654;28;20192;-69
2022/08/31 00:20:56;;;;;;;9.10;5.85;;;17.60;93.50;;;;;;5051883;28;20282;-68
2022/08/31 00:23:25;;;;;;;6.60;5.82;;;17.50;93.50;;;;;;5050954;28;20199;-68
2022/08/31 00:25:54;;;;;;;8.25;6.00;;;17.50;93.60;;;;;;5052115;28;20199;-69
2022/08/31 00:28:23;;;;;;;10.45;6.43;;;17.50;93.70;;;;;;5051868;28;20196;-70
2022/08/31 00:30:52;;;;;;;9.68;6.30;;;17.50;93.80;;;;;;5050607;28;20227;-70
2022/08/31 00:33:20;;;;;;;8.68;6.72;;;17.50;94.00;;;;;;5063037;28;20199;-70
2022/08/31 00:35:50;;;;;;;10.63;6.25;;;17.50;94.10;;;;;;5071901;28;20198;-70
2022/08/31 00:38:22;;;;;;;9.18;6.00;;;17.50;94.20;;;;;;5066248;28;20200;-70
2022/08/31 00:40:51;;;;;;;10.10;7.18;;;17.50;94.50;;;;;;5053374;28;20709;-70
2022/08/31 00:43:40;;;;;;;8.07;6.47;;;17.50;94.20;;;;;;5051998;28;20212;-70
2022/08/31 00:46:10;;;;;;;9.15;6.50;;;17.50;94.40;;;;;;5051773;28;20192;-70
2022/08/31 00:48:44;;;;;;;8.23;5.80;;;17.40;94.50;;;;;;5050632;28;20188;-70
2022/08/31 00:51:15;;;;;;;9.98;6.05;;;17.40;94.50;;;;;;5051607;28;20710;-70
2022/08/31 00:53:47;;;;;;;10.93;6.28;;;17.40;94.50;;;;;;5058175;28;20202;-70
2022/08/31 00:56:19;;;;;;;8.73;6.68;;;17.30;94.50;;;;;;5071724;28;20551;-71
2022/08/31 00:58:50;;;;;;;8.02;6.28;;;17.30;94.60;;;;;;5071751;28;20210;-70
2022/08/31 01:01:22;;;;;;;9.40;6.55;;;17.30;94.70;;;;;;5075330;28;20693;-70
2022/08/31 01:03:52;;;;;;;7.03;6.30;;;17.30;94.70;;;;;;5075328;28;20196;-70
2022/08/31 01:06:23;;;;;;;9.10;6.70;;;17.30;94.70;;;;;;5069223;28;20204;-70
2022/08/31 01:08:53;;;;;;;7.25;6.30;;;17.20;94.80;;;;;;5075232;28;20550;-70
2022/08/31 01:11:22;;;;;;;8.50;6.90;;;17.20;94.90;;;;;;5057259;28;20227;-70
2022/08/31 01:13:52;;;;;;;10.77;6.72;;;17.20;94.90;;;;;;5073783;28;20207;-69
2022/08/31 01:16:25;;;;;;;10.02;6.32;;;17.10;95.00;;;;;;5073827;28;20646;-71
2022/08/31 01:18:57;;;;;;;8.02;6.43;;;17.10;95.10;;;;;;5066675;28;20190;-69
2022/08/31 01:21:30;;;;;;;8.68;6.28;;;17.00;95.10;;;;;;5071709;28;20230;-69
2022/08/31 01:24:03;;;;;;;9.35;6.10;;;17.00;95.30;;;;;;5075043;28;20676;-69
2022/08/31 01:26:33;;;;;;;9.65;6.63;;;17.00;95.40;;;;;;5057587;28;20195;-69
2022/08/31 01:29:05;;;;;;;7.95;5.85;;;17.10;95.60;;;;;;5053779;28;20223;-70
2022/08/31 01:31:40;;;;;;;9.02;5.95;;;17.00;95.60;;;;;;5054593;28;20228;-69
2022/08/31 01:34:09;;;;;;;7.68;6.03;;;17.00;95.60;;;;;;5053583;28;20195;-70
2022/08/31 01:36:41;;;;;;;8.75;5.90;;;17.00;95.70;;;;;;5053908;28;20569;-72
2022/08/31 01:39:12;;;;;;;7.72;5.97;;;16.90;95.80;;;;;;5054968;28;20207;-69
2022/08/31 01:41:42;;;;;;;8.02;5.63;;;16.90;95.90;;;;;;5055339;28;20235;-69
2022/08/31 01:44:12;;;;;;;6.65;5.68;;;17.00;96.00;;;;;;5064957;28;20207;-70
2022/08/31 01:46:42;;;;;;;8.73;5.70;;;17.00;96.10;;;;;;5072108;28;20203;-70
2022/08/31 01:49:12;;;;;;;6.78;6.03;;;17.00;96.30;;;;;;5074748;28;20203;-68
2022/08/31 01:51:42;;;;;;;8.52;6.57;;;16.90;96.30;;;;;;5072001;28;20219;-68
2022/08/31 01:54:12;;;;;;;7.93;6.70;;;16.90;96.30;;;;;;5074549;28;20553;-69
2022/08/31 01:56:43;;;;;;;7.60;6.03;;;16.90;96.30;;;;;;5073084;28;20202;-69
2022/08/31 01:59:19;;;;;;;7.15;5.63;;;16.90;96.40;;;;;;5068412;28;20219;-70
2022/08/31 02:02:07;;;;;;;7.57;6.15;;;16.80;96.60;;;;;;5053028;28;20227;-69
2022/08/31 02:04:37;;;;;;;8.30;6.60;;;16.80;96.60;;;;;;5052128;28;20211;-68
2022/08/31 02:07:06;;;;;;;10.00;6.63;;;16.80;96.70;;;;;;5070239;28;20215;-68
2022/08/31 02:09:36;;;;;;;12.55;6.50;;;16.80;96.90;;;;;;5060923;28;20213;-69
2022/08/31 02:12:06;;;;;;;9.80;6.13;;;16.80;97.00;;;;;;5069558;28;20588;-69
2022/08/31 02:14:35;;;;;;;10.38;6.30;;;16.80;97.10;;;;;;5071307;28;20203;-70
2022/08/31 02:17:04;;;;;;;7.50;6.18;;;16.80;97.20;;;;;;5072636;28;20203;-70
2022/08/31 02:19:36;;;;;;;8.70;6.15;;;16.80;97.20;;;;;;5069583;28;20588;-69
2022/08/31 02:22:05;;;;;;;8.52;6.78;;;16.80;97.20;;;;;;5053987;28;20223;-70
2022/08/31 02:24:34;;;;;;;12.05;7.22;;;16.80;97.30;;;;;;5070100;28;20203;-69
2022/08/31 02:27:04;;;;;;;9.40;6.47;;;16.80;97.40;;;;;;5073945;28;20203;-70
2022/08/31 02:29:34;;;;;;;9.48;6.93;;;16.70;97.50;;;;;;5064064;28;20215;-70
2022/08/31 02:32:04;;;;;;;9.93;7.30;;;16.70;97.60;;;;;;5052424;28;20219;-69
2022/08/31 02:34:32;;;;;;;11.93;8.38;;;16.70;97.70;;;;;;5052375;28;20205;-69
2022/08/31 02:37:01;;;;;;;10.88;8.50;;;16.70;97.90;;;;;;5052409;28;20192;-68
2022/08/31 02:39:32;;;;;;;8.73;6.95;;;16.60;97.90;;;;;;5057456;28;20207;-68
2022/08/31 02:42:01;;;;;;;11.02;6.28;;;16.60;98.00;;;;;;5073578;28;20229;-68
2022/08/31 02:44:32;;;;;;;9.65;7.40;;;16.60;98.10;;;;;;5073619;28;20210;-69
2022/08/31 02:47:01;;;;;;;10.88;6.65;;;16.60;98.20;;;;;;5069262;28;20204;-68
2022/08/31 02:49:40;;;;;;;10.43;6.22;;;16.50;98.30;;;;;;5072079;28;20211;-68
2022/08/31 02:52:09;;;;;;;11.57;6.72;;;16.50;98.60;;;;;;5070436;28;20249;-68
2022/08/31 02:54:38;;;;;;;10.35;6.63;;;16.50;98.70;;;;;;5058799;28;20678;-70
2022/08/31 02:57:06;;;;;;;9.63;6.22;;;16.50;98.80;;;;;;5057596;28;20260;-69
2022/08/31 02:59:36;;;;;;;8.63;6.30;;;16.50;99.10;;;;;;5069701;28;20203;-69
2022/08/31 03:02:05;;;;;;;7.18;5.90;;;16.50;99.50;;;;;;5071480;28;20731;-70
2022/08/31 03:04:36;;;;;;;9.02;5.60;;;16.50;99.50;;;;;;5057998;28;20584;-71
2022/08/31 03:07:05;;;;;;;7.68;6.40;;;16.40;99.70;;;;;;5051931;28;20219;-68
2022/08/31 03:09:34;;;;;;;9.25;5.55;;;16.40;99.90;;;;;;5062088;28;20206;-70
2022/08/31 03:12:04;;;;;;;9.98;6.30;;;16.40;99.90;;;;;;5063432;28;20685;-67
2022/08/31 03:14:33;;;;;;;13.93;6.95;;;16.40;99.90;;;;;;5071453;28;20701;-68
2022/08/31 03:17:04;;;;;;;14.60;9.45;;;16.40;99.90;;;;;;5071653;28;20210;-67
2022/08/31 03:19:34;;;;;;;12.95;8.38;;;16.40;99.90;;;;;;5071568;28;20199;-68
2022/08/31 03:22:04;;;;;;;11.68;8.65;;;16.50;99.90;;;;;;5068695;28;20672;-71
2022/08/31 03:24:33;;;;;;;9.25;7.78;;;16.50;99.90;;;;;;5066045;28;20214;-71
2022/08/31 03:27:02;;;;;;;10.00;7.43;;;16.50;99.90;;;;;;5066185;28;20199;-72
2022/08/31 03:29:30;;;;;;;10.65;7.32;;;16.50;99.90;;;;;;5034799;28;20658;-71
2022/08/31 03:32:15;;;;;;;8.70;6.55;;;16.50;99.90;;;;;;5064001;28;20225;-71
2022/08/31 03:34:47;;;;;;;8.43;6.20;;;16.40;99.90;;;;;;5071439;28;20215;-73
2022/08/31 03:37:15;;;;;;;10.07;5.90;;;16.40;99.90;;;;;;5066646;28;20195;-72
2022/08/31 03:39:44;;;;;;;8.40;6.32;;;16.40;99.90;;;;;;5051343;28;20200;-70
2022/08/31 03:42:13;;;;;;;10.25;6.40;;;16.40;99.90;;;;;;5052506;28;20584;-71
2022/08/31 03:44:42;;;;;;;8.18;6.43;;;16.40;99.90;;;;;;5052508;28;20204;-71
2022/08/31 03:47:20;;;;;;;13.32;6.90;;;16.40;99.90;;;;;;5051265;28;20669;-70
2022/08/31 03:49:51;;;;;;;9.18;6.72;;;16.40;99.90;;;;;;5054233;28;20195;-70
2022/08/31 03:52:23;;;;;;;10.88;7.53;;;16.40;99.90;;;;;;5033429;28;20223;-71
2022/08/31 03:55:01;;;;;;;11.05;6.78;;;16.40;99.90;;;;;;5058056;28;20579;-70
2022/08/31 03:57:29;;;;;;;8.45;6.82;;;16.40;99.90;;;;;;5034448;28;20196;-70
2022/08/31 03:59:59;;;;;;;8.77;7.15;;;16.40;99.90;;;;;;5051177;28;20203;-72
2022/08/31 04:02:44;;;;;;;9.60;6.78;;;16.40;99.90;;;;;;5066935;28;20560;-70
2022/08/31 04:05:34;;;;;;;9.80;6.90;;;16.40;99.90;;;;;;5072250;28;20552;-71
2022/08/31 04:08:16;;;;;;;10.30;7.30;;;16.40;99.90;;;;;;5065761;28;20202;-71
2022/08/31 04:11:07;;;;;;;8.75;6.10;;;16.40;99.90;;;;;;5066768;28;20227;-71
2022/08/31 04:13:55;;;;;;;8.18;6.60;;;16.40;99.90;;;;;;5059088;28;20227;-71
2022/08/31 04:16:36;;;;;;;10.18;6.47;;;16.40;99.90;;;;;;5052203;28;20650;-71
2022/08/31 04:19:40;;;;;;;8.52;6.03;;;16.30;99.90;;;;;;5052816;28;20203;-70
2022/08/31 04:22:18;;;;;;;8.75;6.07;;;16.30;99.90;;;;;;5050763;28;20231;-71
2022/08/31 04:25:09;;;;;;;8.77;6.30;;;16.30;99.90;;;;;;5052275;28;20654;-69
2022/08/31 04:27:38;;;;;;;8.07;6.20;;;16.30;99.90;;;;;;5069697;28;20245;-71
2022/08/31 04:30:08;;;;;;;10.52;6.40;;;16.30;99.90;;;;;;5065704;28;20208;-70
2022/08/31 04:32:37;;;;;;;13.63;6.90;;;16.30;99.90;;;;;;5070734;28;20227;-71
2022/08/31 04:35:08;;;;;;;10.00;6.50;;;16.30;99.90;;;;;;5072825;28;20233;-70
2022/08/31 04:37:39;;;;;;;6.95;5.85;;;16.30;99.90;;;;;;5074818;28;20187;-72
2022/08/31 04:40:18;;;;;;;10.23;6.85;;;16.30;99.90;;;;;;5067841;28;20214;-70
2022/08/31 04:42:48;;;;;;;8.23;6.75;;;16.30;99.90;;;;;;5075890;28;20199;-73
2022/08/31 04:45:19;;;;;;;8.85;6.55;;;16.30;99.90;;;;;;5072038;28;20202;-70
2022/08/31 04:47:48;;;;;;;9.52;6.20;;;16.30;99.90;;;;;;5069258;28;20209;-71
2022/08/31 04:50:19;;;;;;;11.70;7.05;;;16.30;99.90;;;;;;5072645;28;20676;-73
2022/08/31 04:53:08;;;;;;;10.15;6.65;;;16.30;99.90;;;;;;5071716;28;20195;-72
2022/08/31 04:55:39;;;;;;;8.55;7.25;;;16.30;99.90;;;;;;5056980;28;20256;-72
2022/08/31 04:58:11;;;;;;;9.57;7.10;;;16.30;99.90;;;;;;5054335;28;20552;-72
2022/08/31 05:00:42;;;;;;;8.65;7.15;;;16.40;99.90;;;;;;5054207;28;20211;-71
2022/08/31 05:03:17;;;;;;;9.23;7.05;;;16.40;99.90;;;;;;5054852;28;20195;-71
2022/08/31 05:05:49;;;;;;;13.55;8.20;;;16.40;99.90;;;;;;5054306;28;20670;-71
2022/08/31 05:08:18;;;;;;;14.60;9.70;;;16.40;99.90;;;;;;5054691;28;20279;-72
2022/08/31 05:10:47;;;;;;;11.98;8.63;;;16.40;99.90;;;;;;5053963;28;20239;-73
2022/08/31 05:13:16;;;;;;;11.50;8.05;;;16.40;99.90;;;;;;5055822;28;20199;-70
2022/08/31 05:15:45;;;;;;;16.55;8.07;;;16.50;99.90;;;;;;5073335;28;20225;-71
2022/08/31 05:18:20;;;;;;;14.90;9.15;;;16.50;99.90;;;;;;5073906;28;20191;-71
2022/08/31 05:20:56;;;;;;;16.77;9.48;;;16.50;99.90;;;;;;5073990;28;20289;-70
2022/08/31 05:23:25;;;;;;;13.50;9.45;;;16.50;99.90;;;;;;5067846;28;20211;-72
2022/08/31 05:25:54;;;;;;;16.48;8.95;;;16.50;99.90;;;;;;5056624;28;20200;-71
2022/08/31 05:28:23;;;;;;;13.80;9.70;;;16.40;99.90;;;;;;5053868;28;20258;-71
2022/08/31 05:30:51;;;;;;;20.60;14.90;;;16.50;99.90;;;;;;5057546;28;20686;-70
2022/08/31 05:33:32;;;;;;;21.63;13.15;;;16.50;99.90;;;;;;5073728;28;20187;-71
2022/08/31 05:36:05;;;;;;;19.52;11.05;;;16.40;99.90;;;;;;5073593;28;20233;-71
2022/08/31 05:38:34;;;;;;;17.02;10.43;;;16.50;99.90;;;;;;5068409;28;20195;-70
2022/08/31 05:41:04;;;;;;;16.95;9.52;;;16.50;99.90;;;;;;5073633;28;20226;-70
2022/08/31 05:43:34;;;;;;;19.15;10.82;;;16.50;99.90;;;;;;5073480;28;20187;-70
2022/08/31 05:46:05;;;;;;;16.95;10.13;;;16.50;99.90;;;;;;5073412;28;20202;-70
2022/08/31 05:48:39;;;;;;;18.27;10.57;;;16.50;99.90;;;;;;5073416;28;20556;-71
2022/08/31 05:51:15;;;;;;;20.75;12.52;;;16.50;99.90;;;;;;5061889;28;20219;-71
2022/08/31 05:53:45;;;;;;;17.25;10.88;;;16.60;99.90;;;;;;5061424;28;20188;-71
2022/08/31 05:56:23;;;;;;;19.23;10.68;;;16.60;99.90;;;;;;5053194;28;20231;-71
2022/08/31 05:58:56;;;;;;;18.00;9.45;;;16.70;99.90;;;;;;5053252;28;20638;-71
2022/08/31 06:01:30;;;;;;;18.70;9.80;;;16.70;99.90;;;;;;5053155;28;20682;-70
2022/08/31 06:04:14;;;;;;;14.75;10.07;;;16.70;99.90;;;;;;5070818;28;20198;-72
2022/08/31 06:06:46;;;;;;;17.02;11.13;;;16.80;99.90;;;;;;5068528;28;20251;-72
2022/08/31 06:09:17;;;;;;;22.25;11.02;;;16.80;99.90;;;;;;5065186;28;20693;-71
2022/08/31 06:11:47;;;;;;;12.70;10.32;;;16.90;99.90;;;;;;5052524;28;20207;-71
2022/08/31 06:14:18;;;;;;;17.60;10.25;;;16.90;99.90;;;;;;5059426;28;20230;-70
2022/08/31 06:16:48;;;;;;;15.82;9.55;;;17.00;99.90;;;;;;5072835;28;20185;-72
2022/08/31 06:19:20;;;;;;;10.85;8.52;;;17.00;99.90;;;;;;5072852;28;20194;-70
2022/08/31 06:21:52;;;;;;;9.35;8.20;;;17.20;99.90;;;;;;5070380;28;20207;-71
2022/08/31 06:24:24;;;;;;;9.73;6.90;;;17.20;99.90;;;;;;5061460;28;20211;-70
2022/08/31 06:26:56;;;;;;;9.75;7.20;;;17.30;99.90;;;;;;5072665;28;20557;-70
2022/08/31 06:29:30;;;;;;;9.32;6.53;;;17.40;99.90;;;;;;5072640;28;20179;-71
2022/08/31 06:32:06;;;;;;;8.52;6.35;;;17.50;99.90;;;;;;5053722;28;20229;-71
2022/08/31 06:34:36;;;;;;;8.45;6.68;;;17.60;99.90;;;;;;5061251;28;20195;-70
2022/08/31 06:37:11;;;;;;;8.90;6.47;;;17.60;99.90;;;;;;5052907;28;20188;-73
2022/08/31 06:40:10;;;;;;;7.97;6.05;;;17.70;99.90;;;;;;5053243;28;20204;-72
2022/08/31 06:42:38;;;;;;;8.35;5.75;;;17.70;99.90;;;;;;5052319;28;20200;-71
2022/08/31 06:45:13;;;;;;;8.88;6.07;;;17.80;99.90;;;;;;5052336;28;20194;-70
2022/08/31 06:47:45;;;;;;;9.57;6.45;;;17.90;99.90;;;;;;5061324;28;20203;-70
2022/08/31 06:50:14;;;;;;;9.55;6.25;;;17.90;99.90;;;;;;5068762;28;20195;-71
2022/08/31 06:52:47;;;;;;;7.28;5.45;;;18.00;99.90;;;;;;5052762;28;20540;-71
2022/08/31 06:55:35;;;;;;;8.00;5.57;;;18.00;99.90;;;;;;5063639;28;20219;-71
2022/08/31 06:58:42;;;;;;;10.18;6.00;;;18.10;99.90;;;;;;5055979;28;20210;-71
2022/08/31 07:01:35;;;;;;;8.73;6.07;;;18.20;99.90;;;;;;5072000;28;20217;-71
2022/08/31 07:04:33;;;;;;;7.38;6.25;;;18.30;99.90;;;;;;5073144;28;20558;-72
2022/08/31 07:07:02;;;;;;;11.27;5.75;;;18.40;99.90;;;;;;5053020;28;20200;-72
2022/08/31 07:09:33;;;;;;;5.93;5.28;;;18.40;99.90;;;;;;5060957;28;20183;-71
2022/08/31 07:12:04;;;;;;;6.60;5.57;;;18.40;99.90;;;;;;5055688;28;20231;-72
2022/08/31 07:14:34;;;;;;;8.25;4.97;;;18.40;99.90;;;;;;5063589;28;20218;-72
2022/08/31 07:17:04;;;;;;;8.38;6.07;;;18.40;99.90;;;;;;5052440;28;20211;-72
2022/08/31 07:19:34;;;;;;;7.03;5.57;;;18.50;99.90;;;;;;5054831;28;20570;-72
2022/08/31 07:22:08;;;;;;;6.35;5.60;;;18.50;99.90;;;;;;5068321;28;20234;-71
2022/08/31 07:24:43;;;;;;;9.02;5.65;;;18.50;99.90;;;;;;5058035;28;20194;-69
2022/08/31 07:27:17;;;;;;;6.65;5.68;;;18.50;99.90;;;;;;5051557;28;20673;-71
2022/08/31 07:30:05;;;;;;;6.88;5.50;;;18.50;99.90;;;;;;5051524;28;20196;-71
2022/08/31 07:32:34;;;;;;;9.18;6.20;;;18.50;99.90;;;;;;5064568;28;20203;-71
2022/08/31 07:35:07;;;;;;;6.95;5.68;;;18.60;99.90;;;;;;5068113;28;20195;-71
2022/08/31 07:43:15;;;;;;;8.35;5.70;;;18.70;99.90;;;;;;5019825;28;20215;-71
2022/08/31 07:45:45;;;;;;;8.10;5.63;;;18.80;99.90;;;;;;5051367;28;20192;-71
2022/08/31 07:48:20;;;;;;;7.68;5.78;;;18.80;99.90;;;;;;5051254;28;20195;-71
2022/08/31 07:51:14;;;;;;;9.82;5.60;;;18.90;99.90;;;;;;5052016;28;20223;-72
2022/08/31 07:54:07;;;;;;;6.25;5.65;;;18.90;99.90;;;;;;5054495;28;20195;-72
2022/08/31 07:56:48;;;;;;;10.38;5.60;;;19.00;99.90;;;;;;5072431;28;20215;-73
2022/08/31 07:59:22;;;;;;;9.07;6.28;;;19.00;99.90;;;;;;5068627;28;20548;-72
2022/08/31 08:01:54;;;;;;;7.28;5.72;;;19.00;99.90;;;;;;5064530;28;20234;-71
2022/08/31 08:04:25;;;;;;;8.40;5.72;;;19.10;99.90;;;;;;5065364;28;20676;-73
2022/08/31 08:07:15;;;;;;;10.02;5.57;;;19.10;99.90;;;;;;5050238;28;20553;-71
2022/08/31 08:09:54;;;;;;;9.68;5.80;;;19.10;99.90;;;;;;5054072;28;20206;-71
2022/08/31 08:13:03;;;;;;;8.27;6.00;;;19.20;99.90;;;;;;5014373;28;20196;-71
2022/08/31 08:15:50;;;;;;;11.05;6.03;;;19.20;99.90;;;;;;5014416;28;20593;-71
2022/08/31 08:18:49;;;;;;;6.88;5.32;;;19.40;99.90;;;;;;5058568;28;20226;-70
2022/08/31 08:21:21;;;;;;;7.82;5.65;;;19.50;99.90;;;;;;5061288;28;20226;-71
2022/08/31 08:23:51;;;;;;;6.45;5.75;;;19.50;99.80;;;;;;5057181;28;20195;-70
2022/08/31 08:26:43;;;;;;;6.22;5.45;;;19.60;99.90;;;;;;5076662;28;20198;-71
2022/08/31 08:29:34;;;;;;;7.97;5.80;;;19.70;99.80;;;;;;5075706;28;20576;-71
2022/08/31 08:32:04;;;;;;;6.38;5.10;;;19.70;99.30;;;;;;5072714;28;20229;-71
2022/08/31 08:34:33;;;;;;;5.35;4.53;;;19.90;98.30;;;;;;5068564;28;20555;-71
2022/08/31 08:37:06;;;;;;;6.03;5.05;;;19.90;98.80;;;;;;5060064;28;20234;-71
2022/08/31 08:39:35;;;;;;;8.32;5.75;;;20.00;99.00;;;;;;5074829;28;20187;-72
2022/08/31 08:42:15;;;;;;;6.95;4.97;;;20.10;98.60;;;;;;5074558;28;20215;-71
2022/08/31 08:44:47;;;;;;;8.95;5.03;;;20.10;98.50;;;;;;5074600;28;20183;-72
2022/08/31 08:47:21;;;;;;;5.55;4.75;;;20.10;98.30;;;;;;5071116;28;20210;-71
2022/08/31 08:50:00;;;;;;;5.97;4.85;;;20.20;98.40;;;;;;5066083;28;20191;-72
2022/08/31 08:52:35;;;;;;;5.63;5.07;;;20.20;98.10;;;;;;5068725;28;20218;-72
2022/08/31 08:55:07;;;;;;;8.85;5.18;;;20.30;98.10;;;;;;5074550;28;20187;-72
2022/08/31 08:57:40;;;;;;;6.32;4.80;;;20.40;98.00;;;;;;5059390;28;20214;-70
2022/08/31 09:00:14;;;;;;;5.25;4.72;;;20.40;98.10;;;;;;5054227;28;20211;-71
2022/08/31 09:02:57;;;;;;;8.00;4.82;;;20.40;97.60;;;;;;5054339;28;20704;-71
2022/08/31 09:05:59;;;;;;;5.85;4.60;;;20.50;97.50;;;;;;5061722;28;20657;-70
2022/08/31 09:08:54;;;;;;;9.13;4.43;;;20.60;96.90;;;;;;5074109;28;20195;-69
2022/08/31 09:11:34;;;;;;;5.78;4.60;;;20.70;97.00;;;;;;5069685;28;20231;-72
2022/08/31 09:14:17;;;;;;;5.85;4.43;;;20.70;97.20;;;;;;5057974;28;20221;-72
2022/08/31 09:17:00;;;;;;;4.75;4.28;;;20.80;97.30;;;;;;5073994;28;20203;-71
2022/08/31 09:19:56;;;;;;;6.18;4.80;;;20.90;96.60;;;;;;5073966;28;20230;-70
2022/08/31 09:22:18;;;;;;;8.63;4.95;;;21.00;96.60;;;;;;5056018;28;20592;-71
2022/08/31 09:24:50;;;;;;;4.85;4.30;;;21.00;96.20;;;;;;5053922;28;20260;-71
2022/08/31 09:27:47;;;;;;;6.90;4.38;;;21.20;96.10;;;;;;5051780;28;20693;-71
2022/08/31 09:30:33;;;;;;;5.00;4.20;;;21.20;96.30;;;;;;5054982;28;20658;-72
2022/08/31 09:33:04;;;;;;;7.13;4.68;;;21.30;95.80;;;;;;5063896;28;20686;-71
2022/08/31 09:35:39;;;;;;;5.55;4.50;;;21.50;96.40;;;;;;5067966;28;20563;-70
2022/08/31 09:38:11;;;;;;;5.32;4.50;;;21.60;95.80;;;;;;5054788;28;20215;-70
2022/08/31 09:40:42;;;;;;;6.68;4.25;;;21.70;95.00;;;;;;5073537;28;20222;-70
2022/08/31 09:43:21;;;;;;;8.13;4.53;;;21.80;95.10;;;;;;5074689;28;20198;-71
2022/08/31 09:45:55;;;;;;;6.60;4.30;;;22.00;94.10;;;;;;5074644;28;20187;-69
2022/08/31 09:48:50;;;;;;;6.22;4.10;;;22.20;93.90;;;;;;5074696;28;20183;-71
2022/08/31 09:51:26;;;;;;;7.95;4.28;;;22.40;93.70;;;;;;5062913;28;20236;-74
2022/08/31 09:56:54;;;;;;;4.63;4.00;;;22.70;93.20;;;;;;5073025;28;20203;-70
2022/08/31 09:59:36;;;;;;;4.95;3.30;;;22.90;93.20;;;;;;5053970;28;20210;-70
2022/08/31 10:02:10;;;;;;;4.65;3.72;;;23.10;92.80;;;;;;5074347;28;20226;-70
2022/08/31 10:04:51;;;;;;;5.22;4.20;;;23.20;92.10;;;;;;5072292;28;20582;-71
2022/08/31 10:07:29;;;;;;;4.88;4.13;;;23.20;91.80;;;;;;5055634;28;20215;-70
2022/08/31 10:10:02;;;;;;;5.15;3.90;;;23.20;92.00;;;;;;5054213;28;20639;-72
2022/08/31 10:12:42;;;;;;;3.95;3.38;;;23.30;91.00;;;;;;5052905;28;20216;-71
2022/08/31 10:15:16;;;;;;;5.15;3.90;;;23.30;91.90;;;;;;5054073;28;20212;-72
2022/08/31 10:17:53;;;;;;;5.85;3.92;;;23.20;91.50;;;;;;5053310;28;20220;-71
2022/08/31 10:20:29;;;;;;;6.50;3.70;;;23.20;91.80;;;;;;5053980;28;20188;-71
2022/08/31 10:23:09;;;;;;;6.07;3.65;;;23.30;90.20;;;;;;5069794;28;20193;-70
2022/08/31 10:25:46;;;;;;;6.53;4.13;;;23.30;91.20;;;;;;5073863;28;20198;-71
2022/08/31 10:28:20;;;;;;;4.13;3.72;;;23.30;90.90;;;;;;5059961;28;20641;-71
2022/08/31 10:30:58;;;;;;;6.30;3.75;;;23.20;91.30;;;;;;5071907;28;20682;-70
2022/08/31 10:35:01;;;;;;;5.80;4.15;;;23.20;90.90;;;;;;5051863;28;20674;-70
2022/08/31 10:36:26;;;;;;;5.53;3.42;;;23.10;90.70;;;;;;5056710;28;20195;-71
2022/08/31 10:38:56;;;;;;;8.15;3.72;;;23.10;90.70;;;;;;5073556;28;20218;-70
2022/08/31 10:41:29;;;;;;;4.38;3.42;;;23.00;91.20;;;;;;5072200;28;20215;-71
2022/08/31 10:44:01;;;;;;;3.97;3.40;;;23.00;91.00;;;;;;5068781;28;20191;-70
2022/08/31 10:46:31;;;;;;;4.85;3.60;;;22.90;90.80;;;;;;5073478;28;20195;-71
2022/08/31 10:49:03;;;;;;;6.18;3.90;;;23.00;90.60;;;;;;5073385;28;20191;-70
2022/08/31 10:51:45;;;;;;;4.50;3.35;;;23.00;90.10;;;;;;5068721;28;20218;-70
2022/08/31 10:54:27;;;;;;;4.18;3.78;;;23.00;90.50;;;;;;5069649;28;20195;-71
2022/08/31 10:57:07;;;;;;;7.65;4.07;;;22.90;90.30;;;;;;5067595;28;20578;-70
2022/08/31 10:59:40;;;;;;;7.68;3.80;;;22.90;90.30;;;;;;5063040;28;20215;-70
2022/08/31 11:02:44;;;;;;;4.50;3.88;;;23.00;90.80;;;;;;5057481;28;20226;-72
2022/08/31 11:05:32;;;;;;;5.55;4.00;;;22.90;89.80;;;;;;5073083;28;20183;-71
2022/08/31 11:08:12;;;;;;;3.83;3.42;;;22.90;90.40;;;;;;5057718;28;20670;-71
2022/08/31 11:10:48;;;;;;;3.83;3.38;;;22.90;90.30;;;;;;5053042;28;20226;-73
2022/08/31 11:13:49;;;;;;;6.10;3.50;;;22.80;90.50;;;;;;5052960;28;20207;-71
2022/08/31 11:16:32;;;;;;;7.60;4.88;;;22.80;90.20;;;;;;5072988;28;20562;-72
2022/08/31 11:19:36;;;;;;;4.72;3.47;;;22.80;90.60;;;;;;5072875;28;20229;-70
2022/08/31 11:22:35;;;;;;;6.05;3.90;;;22.70;90.70;;;;;;5055206;28;20226;-70
2022/08/31 11:25:28;;;;;;;5.30;4.03;;;22.70;90.60;;;;;;5052751;28;20191;-71
2022/08/31 11:28:05;;;;;;;4.68;3.63;;;22.70;90.30;;;;;;5057975;28;20191;-70
2022/08/31 11:30:40;;;;;;;4.90;3.63;;;22.70;90.10;;;;;;5071376;28;20696;-70
2022/08/31 11:33:18;;;;;;;5.70;3.70;;;22.70;90.30;;;;;;5071110;28;20214;-70
2022/08/31 11:36:04;;;;;;;3.83;3.40;;;22.70;90.30;;;;;;5069135;28;20210;-71
2022/08/31 11:39:34;;;;;;;7.90;3.80;;;22.60;90.60;;;;;;5052553;28;20708;-70
2022/08/31 11:42:11;;;;;;;5.00;3.70;;;22.50;90.30;;;;;;5056813;28;20226;-70
2022/08/31 11:45:07;;;;;;;5.35;3.55;;;22.50;90.60;;;;;;5052620;28;20199;-73
2022/08/31 11:47:45;;;;;;;4.15;3.55;;;22.60;90.30;;;;;;5020072;28;20207;-71
2022/08/31 11:50:54;;;;;;;4.78;3.90;;;22.60;90.40;;;;;;5052437;28;20194;-71
2022/08/31 11:53:34;;;;;;;4.25;3.63;;;22.60;90.60;;;;;;5058127;28;20600;-71
2022/08/31 11:56:05;;;;;;;4.78;3.55;;;22.60;90.30;;;;;;5072312;28;20521;-71
2022/08/31 11:58:40;;;;;;;4.20;3.58;;;22.60;90.30;;;;;;5070254;28;20604;-70
2022/08/31 12:01:43;;;;;;;4.82;3.45;;;22.50;90.40;;;;;;5057797;28;20219;-73
2022/08/31 12:04:50;;;;;;;6.80;3.47;;;22.60;90.30;;;;;;4994145;28;20208;-72
2022/08/31 12:07:27;;;;;;;4.00;3.38;;;22.60;90.30;;;;;;5052040;28;20230;-71
2022/08/31 12:10:32;;;;;;;5.65;3.50;;;22.60;90.00;;;;;;5052235;28;20203;-72
2022/08/31 12:13:21;;;;;;;4.25;3.30;;;22.50;89.60;;;;;;5052192;28;20650;-70
2022/08/31 12:16:19;;;;;;;4.88;3.78;;;22.50;90.40;;;;;;5052081;28;20212;-70
2022/08/31 12:19:12;;;;;;;5.93;3.90;;;22.50;90.40;;;;;;5050514;28;20215;-71
2022/08/31 12:24:53;;;;;;;6.22;3.50;;;22.50;90.60;;;;;;5052153;28;20198;-71
2022/08/31 12:27:30;;;;;;;4.60;3.40;;;22.50;90.40;;;;;;5052013;28;20187;-72
2022/08/31 12:30:17;;;;;;;4.25;3.28;;;22.60;90.10;;;;;;5052089;28;20191;-72
2022/08/31 12:33:01;;;;;;;3.55;3.25;;;22.50;91.30;;;;;;5066282;28;20202;-70
2022/08/31 12:35:31;;;;;;;5.28;3.70;;;22.60;90.60;;;;;;5059302;28;20188;-70
2022/08/31 12:38:03;;;;;;;4.53;3.65;;;22.60;90.40;;;;;;5066984;28;20207;-70
2022/08/31 12:40:33;;;;;;;6.85;3.47;;;22.50;90.20;;;;;;5071798;28;20226;-71
2022/08/31 12:43:08;;;;;;;7.50;3.78;;;22.50;90.20;;;;;;5071943;28;20204;-71
2022/08/31 12:45:56;;;;;;;7.38;3.55;;;22.50;90.50;;;;;;5069843;28;20202;-71
2022/08/31 12:48:38;;;;;;;4.32;3.20;;;22.40;90.50;;;;;;5070970;28;20673;-71
2022/08/31 12:51:19;;;;;;;5.22;3.15;;;22.40;90.30;;;;;;5066383;28;20229;-71
2022/08/31 12:54:08;;;;;;;4.32;3.75;;;22.50;90.30;;;;;;5060693;28;20199;-72
2022/08/31 12:56:45;;;;;;;3.80;3.25;;;22.50;90.30;;;;;;5054704;28;20250;-70
2022/08/31 12:59:24;;;;;;;9.23;5.70;;;22.50;90.50;;;;;;5065371;28;20593;-70
2022/08/31 13:02:14;;;;;;;8.27;3.20;;;22.50;90.20;;;;;;5057366;28;20222;-71
2022/08/31 13:04:47;;;;;;;4.15;3.55;;;22.60;89.20;;;;;;5063063;28;20211;-70
2022/08/31 13:07:21;;;;;;;4.78;3.47;;;22.60;89.60;;;;;;5075399;28;20194;-70
2022/08/31 13:10:03;;;;;;;4.80;3.58;;;22.60;89.80;;;;;;5075420;28;20555;-73
2022/08/31 13:12:32;;;;;;;5.65;3.70;;;22.60;89.80;;;;;;5075178;28;20685;-69
2022/08/31 13:15:00;;;;;;;5.55;3.80;;;22.60;90.70;;;;;;5075146;28;20203;-71
2022/08/31 13:17:34;;;;;;;8.90;3.80;;;22.60;89.50;;;;;;5061402;28;20681;-69
2022/08/31 13:20:05;;;;;;;9.70;3.33;;;22.70;89.00;;;;;;5060536;28;20223;-69
2022/08/31 13:22:39;;;;;;;4.45;3.25;;;22.70;89.40;;;;;;5075022;28;20191;-69
2022/08/31 13:25:18;;;;;;;5.05;3.00;;;22.70;90.40;;;;;;5075120;28;20246;-68
2022/08/31 13:27:49;;;;;;;15.48;6.32;;;22.70;88.20;;;;;;5073935;28;20194;-68
2022/08/31 13:30:22;;;;;;;8.18;3.75;;;22.70;88.70;;;;;;5054620;28;20206;-70
2022/08/31 13:32:54;;;;;;;5.22;3.38;;;22.80;88.80;;;;;;5054947;28;20566;-69
2022/08/31 13:35:27;;;;;;;5.68;3.30;;;22.70;89.50;;;;;;5058823;28;20576;-70
2022/08/31 13:38:02;;;;;;;4.68;3.53;;;22.80;86.40;;;;;;5051728;28;20192;-70
2022/08/31 13:40:35;;;;;;;4.85;3.55;;;22.80;87.10;;;;;;5059323;28;20254;-69
2022/08/31 13:43:07;;;;;;;4.75;3.40;;;22.80;86.90;;;;;;5074708;28;20184;-69
2022/08/31 13:45:41;;;;;;;4.55;3.53;;;22.70;87.40;;;;;;5074523;28;20187;-69